sensor_id;sensor_type;location;lat;lon;timestamp;pressure;altitude;pressure_sealevel;temperature;humidity
69879;BME280;57161;43.136;24.706;2023-01-08T00:01:07;99758.31;;;3.31;73.61
69879;BME280;57161;43.136;24.706;2023-01-08T00:03:34;99742.34;;;3.20;73.76
69879;BME280;57161;43.136;24.706;2023-01-08T00:06:01;99746.25;;;3.28;73.49
69879;BME280;57161;43.136;24.706;2023-01-08T00:08:28;99746.25;;;3.28;73.77
69879;BME280;57161;43.136;24.706;2023-01-08T00:10:54;99745.75;;;3.30;73.43
69879;BME280;57161;43.136;24.706;2023-01-08T00:13:20;99741.75;;;3.31;73.32
69879;BME280;57161;43.136;24.706;2023-01-08T00:15:46;99740.72;;;3.28;73.51
69879;BME280;57161;43.136;24.706;2023-01-08T00:18:11;99738.13;;;3.25;73.32
69879;BME280;57161;43.136;24.706;2023-01-08T00:20:40;99723.22;;;3.17;73.17
69879;BME280;57161;43.136;24.706;2023-01-08T00:23:10;99722.94;;;3.15;73.17
69879;BME280;57161;43.136;24.706;2023-01-08T00:25:36;99741.88;;;3.22;73.37
69879;BME280;57161;43.136;24.706;2023-01-08T00:28:01;99721.81;;;3.07;73.10
69879;BME280;57161;43.136;24.706;2023-01-08T00:30:27;99740.06;;;3.19;73.24
69879;BME280;57161;43.136;24.706;2023-01-08T00:32:52;99747.38;;;3.22;73.30
69879;BME280;57161;43.136;24.706;2023-01-08T00:35:17;99742.34;;;3.20;73.56
69879;BME280;57161;43.136;24.706;2023-01-08T00:37:43;99743.63;;;3.05;73.46
69879;BME280;57161;43.136;24.706;2023-01-08T00:40:09;99741.91;;;2.92;73.67
69879;BME280;57161;43.136;24.706;2023-01-08T00:42:34;99739.28;;;2.83;74.21
69879;BME280;57161;43.136;24.706;2023-01-08T00:45:00;99739.09;;;2.72;74.31
69879;BME280;57161;43.136;24.706;2023-01-08T00:47:25;99726.66;;;2.62;74.67
69879;BME280;57161;43.136;24.706;2023-01-08T00:49:51;99745.56;;;2.69;75.22
69879;BME280;57161;43.136;24.706;2023-01-08T00:52:16;99726.34;;;2.60;75.06
69879;BME280;57161;43.136;24.706;2023-01-08T00:54:42;99749.97;;;2.61;75.17
69879;BME280;57161;43.136;24.706;2023-01-08T00:57:10;99752.91;;;2.57;75.55
69879;BME280;57161;43.136;24.706;2023-01-08T00:59:35;99748.41;;;2.60;75.49
69879;BME280;57161;43.136;24.706;2023-01-08T01:02:01;99750.72;;;2.61;75.17
69879;BME280;57161;43.136;24.706;2023-01-08T01:04:26;99745.66;;;2.60;75.05
69879;BME280;57161;43.136;24.706;2023-01-08T01:06:52;99752.25;;;2.62;75.12
69879;BME280;57161;43.136;24.706;2023-01-08T01:09:17;99735.56;;;2.57;74.73
69879;BME280;57161;43.136;24.706;2023-01-08T01:11:43;99753.28;;;2.65;74.81
69879;BME280;57161;43.136;24.706;2023-01-08T01:14:08;99753.84;;;2.69;74.59
69879;BME280;57161;43.136;24.706;2023-01-08T01:16:34;99734.94;;;2.62;74.41
69879;BME280;57161;43.136;24.706;2023-01-08T01:19:00;99737.78;;;2.67;74.28
69879;BME280;57161;43.136;24.706;2023-01-08T01:21:29;99739.97;;;2.78;74.36
69879;BME280;57161;43.136;24.706;2023-01-08T01:23:58;99740.72;;;2.79;74.45
69879;BME280;57161;43.136;24.706;2023-01-08T01:26:24;99738.44;;;2.77;74.41
69879;BME280;57161;43.136;24.706;2023-01-08T01:28:52;99745.09;;;2.70;74.55
69879;BME280;57161;43.136;24.706;2023-01-08T01:31:18;99743.38;;;2.73;74.71
69879;BME280;57161;43.136;24.706;2023-01-08T01:33:45;99745.16;;;2.76;74.60
69879;BME280;57161;43.136;24.706;2023-01-08T01:36:12;99747.84;;;2.70;74.75
69879;BME280;57161;43.136;24.706;2023-01-08T01:38:37;99746.06;;;2.67;74.50
69879;BME280;57161;43.136;24.706;2023-01-08T01:41:03;99725.50;;;2.54;74.22
69879;BME280;57161;43.136;24.706;2023-01-08T01:43:42;99730.81;;;2.57;74.87
69879;BME280;57161;43.136;24.706;2023-01-08T01:46:19;99739.84;;;2.58;75.14
69879;BME280;57161;43.136;24.706;2023-01-08T01:48:48;99721.13;;;2.47;74.65
69879;BME280;57161;43.136;24.706;2023-01-08T01:51:15;99736.16;;;2.61;74.65
69879;BME280;57161;43.136;24.706;2023-01-08T01:53:41;99716.09;;;2.60;74.02
69879;BME280;57161;43.136;24.706;2023-01-08T01:56:07;99732.53;;;2.69;73.76
69879;BME280;57161;43.136;24.706;2023-01-08T01:58:33;99732.66;;;2.46;74.64
69879;BME280;57161;43.136;24.706;2023-01-08T02:01:02;99740.16;;;2.45;74.73
69879;BME280;57161;43.136;24.706;2023-01-08T02:03:31;99728.38;;;2.45;74.92
69879;BME280;57161;43.136;24.706;2023-01-08T02:11:38;99731.50;;;2.37;74.84
69879;BME280;57161;43.136;24.706;2023-01-08T02:14:31;99734.25;;;2.37;75.06
69879;BME280;57161;43.136;24.706;2023-01-08T02:17:01;99739.47;;;2.35;75.17
69879;BME280;57161;43.136;24.706;2023-01-08T02:22:25;99735.19;;;2.34;75.11
69879;BME280;57161;43.136;24.706;2023-01-08T02:27:48;99734.63;;;2.30;75.48
69879;BME280;57161;43.136;24.706;2023-01-08T02:30:16;99737.84;;;2.44;74.69
69879;BME280;57161;43.136;24.706;2023-01-08T02:32:42;99726.19;;;2.49;74.48
69879;BME280;57161;43.136;24.706;2023-01-08T02:35:09;99728.25;;;2.54;74.56
69879;BME280;57161;43.136;24.706;2023-01-08T02:37:35;99717.78;;;2.43;74.37
69879;BME280;57161;43.136;24.706;2023-01-08T02:45:30;99735.78;;;2.53;73.72
69879;BME280;57161;43.136;24.706;2023-01-08T02:48:11;99739.50;;;2.50;73.66
69879;BME280;57161;43.136;24.706;2023-01-08T02:50:44;99734.34;;;2.43;74.05
69879;BME280;57161;43.136;24.706;2023-01-08T02:53:21;99735.09;;;2.44;74.16
69879;BME280;57161;43.136;24.706;2023-01-08T02:55:54;99737.41;;;2.30;74.29
69879;BME280;57161;43.136;24.706;2023-01-08T02:58:23;99737.28;;;2.25;74.41
69879;BME280;57161;43.136;24.706;2023-01-08T03:00:50;99721.09;;;2.03;75.08
69879;BME280;57161;43.136;24.706;2023-01-08T03:03:23;99739.47;;;2.21;74.75
69879;BME280;57161;43.136;24.706;2023-01-08T03:05:52;99711.69;;;2.09;74.62
69879;BME280;57161;43.136;24.706;2023-01-08T03:08:18;99732.91;;;2.18;74.20
69879;BME280;57161;43.136;24.706;2023-01-08T03:11:04;99739.56;;;2.26;74.25
69879;BME280;57161;43.136;24.706;2023-01-08T03:16:16;99727.38;;;2.18;74.37
69879;BME280;57161;43.136;24.706;2023-01-08T03:18:47;99745.53;;;2.25;74.21
69879;BME280;57161;43.136;24.706;2023-01-08T03:21:14;99736.50;;;2.24;74.53
69879;BME280;57161;43.136;24.706;2023-01-08T03:23:43;99720.72;;;2.10;74.25
69879;BME280;57161;43.136;24.706;2023-01-08T03:26:14;99717.75;;;1.99;74.65
69879;BME280;57161;43.136;24.706;2023-01-08T03:28:48;99748.00;;;2.08;74.63
69879;BME280;57161;43.136;24.706;2023-01-08T03:31:17;99746.28;;;1.96;74.83
69879;BME280;57161;43.136;24.706;2023-01-08T03:33:44;99732.16;;;1.79;75.38
69879;BME280;57161;43.136;24.706;2023-01-08T03:36:14;99732.75;;;1.59;75.93
69879;BME280;57161;43.136;24.706;2023-01-08T03:38:51;99732.75;;;1.59;76.08
69879;BME280;57161;43.136;24.706;2023-01-08T03:41:19;99744.66;;;1.65;75.95
69879;BME280;57161;43.136;24.706;2023-01-08T03:43:46;99719.34;;;1.52;76.31
69879;BME280;57161;43.136;24.706;2023-01-08T03:46:15;99737.97;;;1.57;76.62
69879;BME280;57161;43.136;24.706;2023-01-08T03:48:43;99741.31;;;1.61;76.28
69879;BME280;57161;43.136;24.706;2023-01-08T03:51:09;99747.47;;;1.56;76.45
69879;BME280;57161;43.136;24.706;2023-01-08T03:53:35;99741.56;;;1.48;76.82
69879;BME280;57161;43.136;24.706;2023-01-08T03:56:00;99744.13;;;1.52;76.84
69879;BME280;57161;43.136;24.706;2023-01-08T03:58:26;99739.28;;;1.47;76.71
69879;BME280;57161;43.136;24.706;2023-01-08T04:00:51;99731.06;;;1.38;77.01
69879;BME280;57161;43.136;24.706;2023-01-08T04:03:17;99727.06;;;1.39;76.70
69879;BME280;57161;43.136;24.706;2023-01-08T04:05:43;99741.38;;;1.52;76.99
69879;BME280;57161;43.136;24.706;2023-01-08T04:08:08;99727.19;;;1.44;76.67
69879;BME280;57161;43.136;24.706;2023-01-08T04:10:34;99731.59;;;1.51;76.63
69879;BME280;57161;43.136;24.706;2023-01-08T04:12:59;99733.13;;;1.52;76.97
69879;BME280;57161;43.136;24.706;2023-01-08T04:15:25;99732.81;;;1.50;76.92
69879;BME280;57161;43.136;24.706;2023-01-08T04:17:52;99744.72;;;1.56;76.98
69879;BME280;57161;43.136;24.706;2023-01-08T04:20:17;99746.94;;;1.67;76.45
69879;BME280;57161;43.136;24.706;2023-01-08T04:22:43;99740.19;;;1.68;76.62
69879;BME280;57161;43.136;24.706;2023-01-08T04:25:09;99747.53;;;1.71;76.47
69879;BME280;57161;43.136;24.706;2023-01-08T04:27:34;99743.06;;;1.73;76.42
69879;BME280;57161;43.136;24.706;2023-01-08T04:30:00;99726.66;;;1.55;76.18
69879;BME280;57161;43.136;24.706;2023-01-08T04:32:25;99742.19;;;1.67;76.14
69879;BME280;57161;43.136;24.706;2023-01-08T04:34:51;99749.41;;;1.65;75.80
69879;BME280;57161;43.136;24.706;2023-01-08T04:37:16;99755.53;;;1.60;75.86
69879;BME280;57161;43.136;24.706;2023-01-08T04:39:41;99742.59;;;1.51;75.85
69879;BME280;57161;43.136;24.706;2023-01-08T04:42:07;99748.13;;;1.51;75.88
69879;BME280;57161;43.136;24.706;2023-01-08T04:44:33;99736.59;;;1.29;76.96
69879;BME280;57161;43.136;24.706;2023-01-08T04:46:58;99748.22;;;1.33;76.98
69879;BME280;57161;43.136;24.706;2023-01-08T04:49:24;99716.94;;;1.21;76.88
69879;BME280;57161;43.136;24.706;2023-01-08T04:51:49;99743.13;;;1.40;76.97
69879;BME280;57161;43.136;24.706;2023-01-08T04:54:14;99744.78;;;1.47;76.45
69879;BME280;57161;43.136;24.706;2023-01-08T04:56:40;99731.41;;;1.31;76.60
69879;BME280;57161;43.136;24.706;2023-01-08T04:59:05;99730.97;;;1.23;76.76
69879;BME280;57161;43.136;24.706;2023-01-08T05:01:31;99747.75;;;1.34;76.58
69879;BME280;57161;43.136;24.706;2023-01-08T05:04:02;99741.41;;;1.19;76.68
69879;BME280;57161;43.136;24.706;2023-01-08T05:06:29;99758.03;;;1.25;77.24
69879;BME280;57161;43.136;24.706;2023-01-08T05:08:55;99752.88;;;1.17;76.92
69879;BME280;57161;43.136;24.706;2023-01-08T05:11:22;99744.97;;;1.10;77.00
69879;BME280;57161;43.136;24.706;2023-01-08T05:13:49;99764.88;;;1.05;77.23
69879;BME280;57161;43.136;24.706;2023-01-08T05:16:15;99753.72;;;1.00;77.38
69879;BME280;57161;43.136;24.706;2023-01-08T05:18:42;99717.59;;;0.74;77.58
69879;BME280;57161;43.136;24.706;2023-01-08T05:21:08;99766.69;;;1.08;77.30
69879;BME280;57161;43.136;24.706;2023-01-08T05:23:33;99745.00;;;1.01;77.62
69879;BME280;57161;43.136;24.706;2023-01-08T05:26:00;99756.31;;;1.03;77.52
69879;BME280;57161;43.136;24.706;2023-01-08T05:28:26;99736.28;;;1.03;77.43
69879;BME280;57161;43.136;24.706;2023-01-08T05:30:52;99750.69;;;0.98;77.63
69879;BME280;57161;43.136;24.706;2023-01-08T05:33:18;99764.66;;;1.18;77.27
69879;BME280;57161;43.136;24.706;2023-01-08T05:35:43;99747.00;;;1.01;77.14
69879;BME280;57161;43.136;24.706;2023-01-08T05:38:09;99762.09;;;1.14;77.37
69879;BME280;57161;43.136;24.706;2023-01-08T05:40:34;99749.59;;;0.95;77.36
69879;BME280;57161;43.136;24.706;2023-01-08T05:43:00;99769.59;;;1.05;77.55
69879;BME280;57161;43.136;24.706;2023-01-08T05:45:26;99771.31;;;1.02;77.82
69879;BME280;57161;43.136;24.706;2023-01-08T05:47:53;99766.56;;;1.03;77.91
69879;BME280;57161;43.136;24.706;2023-01-08T05:50:18;99769.59;;;1.05;77.66
69879;BME280;57161;43.136;24.706;2023-01-08T05:52:44;99760.28;;;1.02;77.15
69879;BME280;57161;43.136;24.706;2023-01-08T05:55:09;99780.72;;;1.19;77.32
69879;BME280;57161;43.136;24.706;2023-01-08T05:57:35;99780.34;;;1.27;76.87
69879;BME280;57161;43.136;24.706;2023-01-08T06:00:00;99776.22;;;1.31;76.53
69879;BME280;57161;43.136;24.706;2023-01-08T06:02:26;99776.06;;;1.35;76.36
69879;BME280;57161;43.136;24.706;2023-01-08T06:04:51;99785.19;;;1.41;76.12
69879;BME280;57161;43.136;24.706;2023-01-08T06:07:17;99775.09;;;1.38;75.64
69879;BME280;57161;43.136;24.706;2023-01-08T06:09:42;99782.56;;;1.46;75.91
69879;BME280;57161;43.136;24.706;2023-01-08T06:12:08;99762.13;;;1.29;75.74
69879;BME280;57161;43.136;24.706;2023-01-08T06:14:33;99789.06;;;1.34;75.88
69879;BME280;57161;43.136;24.706;2023-01-08T06:16:59;99781.09;;;1.36;75.70
69879;BME280;57161;43.136;24.706;2023-01-08T06:19:24;99785.41;;;1.28;75.92
69879;BME280;57161;43.136;24.706;2023-01-08T06:21:50;99771.63;;;1.28;75.56
69879;BME280;57161;43.136;24.706;2023-01-08T06:24:15;99782.63;;;1.37;75.51
69879;BME280;57161;43.136;24.706;2023-01-08T06:26:40;99783.09;;;1.36;75.69
69879;BME280;57161;43.136;24.706;2023-01-08T06:29:06;99793.44;;;1.41;75.54
69879;BME280;57161;43.136;24.706;2023-01-08T06:31:32;99772.25;;;1.32;75.59
69879;BME280;57161;43.136;24.706;2023-01-08T06:33:58;99790.84;;;1.46;75.51
69879;BME280;57161;43.136;24.706;2023-01-08T06:36:23;99787.28;;;1.46;75.25
69879;BME280;57161;43.136;24.706;2023-01-08T06:38:48;99783.56;;;1.58;75.38
69879;BME280;57161;43.136;24.706;2023-01-08T06:41:14;99786.75;;;1.66;75.08
69879;BME280;57161;43.136;24.706;2023-01-08T06:43:39;99790.78;;;1.79;74.48
69879;BME280;57161;43.136;24.706;2023-01-08T06:46:06;99794.41;;;1.86;74.07
69879;BME280;57161;43.136;24.706;2023-01-08T06:48:33;99787.09;;;1.83;73.78
69879;BME280;57161;43.136;24.706;2023-01-08T06:50:59;99787.00;;;1.92;73.62
69879;BME280;57161;43.136;24.706;2023-01-08T06:53:25;99792.81;;;1.94;73.71
69879;BME280;57161;43.136;24.706;2023-01-08T06:55:50;99803.25;;;1.90;73.44
69879;BME280;57161;43.136;24.706;2023-01-08T06:58:21;99789.56;;;1.80;73.79
69879;BME280;57161;43.136;24.706;2023-01-08T07:00:47;99774.31;;;1.70;73.44
69879;BME280;57161;43.136;24.706;2023-01-08T07:03:12;99800.41;;;1.84;73.52
69879;BME280;57161;43.136;24.706;2023-01-08T07:05:38;99804.78;;;1.91;73.61
69879;BME280;57161;43.136;24.706;2023-01-08T07:08:04;99791.47;;;1.89;73.28
69879;BME280;57161;43.136;24.706;2023-01-08T07:10:29;99801.25;;;2.14;73.34
69879;BME280;57161;43.136;24.706;2023-01-08T07:12:56;99787.84;;;2.22;73.05
69879;BME280;57161;43.136;24.706;2023-01-08T07:15:21;99793.88;;;2.35;72.64
69879;BME280;57161;43.136;24.706;2023-01-08T07:17:47;99805.59;;;2.59;72.25
69879;BME280;57161;43.136;24.706;2023-01-08T07:20:12;99805.59;;;2.74;71.74
69879;BME280;57161;43.136;24.706;2023-01-08T07:22:38;99799.25;;;2.83;71.04
69879;BME280;57161;43.136;24.706;2023-01-08T07:25:03;99794.47;;;2.83;70.64
69879;BME280;57161;43.136;24.706;2023-01-08T07:27:29;99790.41;;;2.93;70.35
69879;BME280;57161;43.136;24.706;2023-01-08T07:29:54;99804.81;;;3.18;69.89
69879;BME280;57161;43.136;24.706;2023-01-08T07:32:21;99803.41;;;3.08;69.76
69879;BME280;57161;43.136;24.706;2023-01-08T07:34:47;99806.16;;;3.08;70.00
69879;BME280;57161;43.136;24.706;2023-01-08T07:37:12;99801.78;;;3.16;69.72
69879;BME280;57161;43.136;24.706;2023-01-08T07:39:38;99801.00;;;3.30;69.81
69879;BME280;57161;43.136;24.706;2023-01-08T07:42:03;99803.44;;;3.43;69.86
69879;BME280;57161;43.136;24.706;2023-01-08T07:44:29;99805.75;;;3.65;69.77
69879;BME280;57161;43.136;24.706;2023-01-08T07:46:54;99787.72;;;3.69;69.64
69879;BME280;57161;43.136;24.706;2023-01-08T07:49:20;99793.84;;;3.94;69.20
69879;BME280;57161;43.136;24.706;2023-01-08T07:51:48;99784.34;;;4.00;69.12
69879;BME280;57161;43.136;24.706;2023-01-08T07:54:13;99796.50;;;4.29;68.56
69879;BME280;57161;43.136;24.706;2023-01-08T07:56:39;99786.94;;;4.30;67.66
69879;BME280;57161;43.136;24.706;2023-01-08T07:59:04;99794.91;;;4.42;67.47
69879;BME280;57161;43.136;24.706;2023-01-08T08:01:30;99778.47;;;4.39;67.29
69879;BME280;57161;43.136;24.706;2023-01-08T08:03:55;99805.88;;;4.57;67.43
69879;BME280;57161;43.136;24.706;2023-01-08T08:06:21;99800.41;;;4.68;66.85
69879;BME280;57161;43.136;24.706;2023-01-08T08:08:46;99786.84;;;4.70;66.57
69879;BME280;57161;43.136;24.706;2023-01-08T08:11:11;99792.75;;;4.83;66.42
69879;BME280;57161;43.136;24.706;2023-01-08T08:13:37;99800.19;;;4.98;66.25
69879;BME280;57161;43.136;24.706;2023-01-08T08:16:07;99782.56;;;5.01;66.01
69879;BME280;57161;43.136;24.706;2023-01-08T08:18:33;99791.00;;;5.18;65.53
69879;BME280;57161;43.136;24.706;2023-01-08T08:20:58;99778.66;;;5.13;65.56
69879;BME280;57161;43.136;24.706;2023-01-08T08:23:24;99787.41;;;5.37;65.23
69879;BME280;57161;43.136;24.706;2023-01-08T08:25:50;99793.50;;;5.47;64.93
69879;BME280;57161;43.136;24.706;2023-01-08T08:28:16;99791.53;;;5.53;65.09
69879;BME280;57161;43.136;24.706;2023-01-08T08:30:41;99782.72;;;5.60;64.81
69879;BME280;57161;43.136;24.706;2023-01-08T08:33:07;99793.66;;;5.75;64.28
69879;BME280;57161;43.136;24.706;2023-01-08T08:35:33;99801.28;;;5.86;64.42
69879;BME280;57161;43.136;24.706;2023-01-08T08:37:59;99805.63;;;5.98;64.31
69879;BME280;57161;43.136;24.706;2023-01-08T08:40:25;99779.94;;;6.03;64.01
69879;BME280;57161;43.136;24.706;2023-01-08T08:43:03;99793.88;;;6.25;63.61
69879;BME280;57161;43.136;24.706;2023-01-08T08:45:29;99779.50;;;6.32;63.20
69879;BME280;57161;43.136;24.706;2023-01-08T08:47:55;99799.53;;;6.53;62.87
69879;BME280;57161;43.136;24.706;2023-01-08T08:50:21;99793.75;;;6.74;62.20
69879;BME280;57161;43.136;24.706;2023-01-08T08:52:46;99786.16;;;6.80;61.81
69879;BME280;57161;43.136;24.706;2023-01-08T08:55:13;99800.31;;;6.93;61.54
69879;BME280;57161;43.136;24.706;2023-01-08T08:57:45;99796.78;;;7.09;61.26
69879;BME280;57161;43.136;24.706;2023-01-08T09:00:12;99788.94;;;7.25;60.73
69879;BME280;57161;43.136;24.706;2023-01-08T09:02:38;99779.09;;;7.29;60.71
69879;BME280;57161;43.136;24.706;2023-01-08T09:05:04;99785.59;;;7.60;60.17
69879;BME280;57161;43.136;24.706;2023-01-08T09:07:30;99777.00;;;7.63;59.43
69879;BME280;57161;43.136;24.706;2023-01-08T09:09:56;99787.59;;;7.81;58.62
69879;BME280;57161;43.136;24.706;2023-01-08T09:12:21;99783.00;;;7.84;58.74
69879;BME280;57161;43.136;24.706;2023-01-08T09:14:46;99788.28;;;7.93;58.60
69879;BME280;57161;43.136;24.706;2023-01-08T09:17:14;99781.97;;;7.98;58.14
69879;BME280;57161;43.136;24.706;2023-01-08T09:19:40;99772.84;;;7.92;57.98
69879;BME280;57161;43.136;24.706;2023-01-08T09:22:05;99778.09;;;8.07;57.43
69879;BME280;57161;43.136;24.706;2023-01-08T09:24:31;99777.78;;;8.22;57.30
69879;BME280;57161;43.136;24.706;2023-01-08T09:26:56;99762.84;;;8.25;56.55
69879;BME280;57161;43.136;24.706;2023-01-08T09:29:22;99764.56;;;8.33;58.21
69879;BME280;57161;43.136;24.706;2023-01-08T09:31:48;99753.72;;;8.24;57.18
69879;BME280;57161;43.136;24.706;2023-01-08T09:34:13;99749.16;;;8.32;57.09
69879;BME280;57161;43.136;24.706;2023-01-08T09:36:38;99750.88;;;8.47;57.38
69879;BME280;57161;43.136;24.706;2023-01-08T09:39:04;99741.38;;;8.61;56.69
69879;BME280;57161;43.136;24.706;2023-01-08T09:41:32;99743.78;;;8.81;56.20
69879;BME280;57161;43.136;24.706;2023-01-08T09:43:59;99743.91;;;8.94;55.93
69879;BME280;57161;43.136;24.706;2023-01-08T09:46:27;99740.31;;;8.99;56.13
69879;BME280;57161;43.136;24.706;2023-01-08T09:48:56;99732.72;;;9.00;55.51
69879;BME280;57161;43.136;24.706;2023-01-08T09:51:33;99725.03;;;9.06;55.23
69879;BME280;57161;43.136;24.706;2023-01-08T09:53:59;99733.53;;;9.19;54.81
69879;BME280;57161;43.136;24.706;2023-01-08T09:56:25;99723.84;;;9.26;55.05
69879;BME280;57161;43.136;24.706;2023-01-08T09:58:57;99725.47;;;9.40;54.17
69879;BME280;57161;43.136;24.706;2023-01-08T10:01:25;99731.00;;;9.46;54.49
69879;BME280;57161;43.136;24.706;2023-01-08T10:06:39;99717.66;;;9.57;53.89
69879;BME280;57161;43.136;24.706;2023-01-08T10:09:06;99707.03;;;9.56;53.39
69879;BME280;57161;43.136;24.706;2023-01-08T10:11:41;99720.34;;;9.69;53.22
69879;BME280;57161;43.136;24.706;2023-01-08T10:14:24;99712.91;;;9.77;53.71
69879;BME280;57161;43.136;24.706;2023-01-08T10:17:01;99706.72;;;9.84;53.69
69879;BME280;57161;43.136;24.706;2023-01-08T10:19:29;99696.59;;;9.81;53.54
69879;BME280;57161;43.136;24.706;2023-01-08T10:21:55;99711.84;;;9.99;53.89
69879;BME280;57161;43.136;24.706;2023-01-08T10:24:35;99700.81;;;10.06;53.32
69879;BME280;57161;43.136;24.706;2023-01-08T10:27:12;99682.47;;;9.92;53.81
69879;BME280;57161;43.136;24.706;2023-01-08T10:29:38;99687.09;;;10.08;53.86
69879;BME280;57161;43.136;24.706;2023-01-08T10:32:18;99689.50;;;10.17;53.78
69879;BME280;57161;43.136;24.706;2023-01-08T10:34:49;99683.56;;;10.27;53.78
69879;BME280;57161;43.136;24.706;2023-01-08T10:37:46;99674.66;;;10.28;53.86
69879;BME280;57161;43.136;24.706;2023-01-08T10:40:37;99674.78;;;10.36;53.73
69879;BME280;57161;43.136;24.706;2023-01-08T10:43:11;99675.16;;;10.45;53.76
69879;BME280;57161;43.136;24.706;2023-01-08T10:45:38;99671.16;;;10.41;54.13
69879;BME280;57161;43.136;24.706;2023-01-08T10:48:06;99650.94;;;10.35;54.26
69879;BME280;57161;43.136;24.706;2023-01-08T10:50:38;99654.00;;;10.50;54.12
69879;BME280;57161;43.136;24.706;2023-01-08T10:53:04;99655.72;;;10.53;54.48
69879;BME280;57161;43.136;24.706;2023-01-08T10:55:32;99665.88;;;10.69;54.70
69879;BME280;57161;43.136;24.706;2023-01-08T10:58:13;99670.16;;;10.70;54.85
69879;BME280;57161;43.136;24.706;2023-01-08T11:00:39;99664.38;;;10.68;55.42
69879;BME280;57161;43.136;24.706;2023-01-08T11:03:06;99669.78;;;10.79;55.46
69879;BME280;57161;43.136;24.706;2023-01-08T11:05:37;99655.69;;;10.85;55.26
69879;BME280;57161;43.136;24.706;2023-01-08T11:08:18;99666.25;;;10.92;55.51
69879;BME280;57161;43.136;24.706;2023-01-08T11:10:56;99654.97;;;10.98;55.22
69879;BME280;57161;43.136;24.706;2023-01-08T11:13:22;99657.34;;;11.07;55.16
69879;BME280;57161;43.136;24.706;2023-01-08T11:16:09;99655.63;;;11.17;55.04
69879;BME280;57161;43.136;24.706;2023-01-08T11:18:45;99657.56;;;11.22;55.04
69879;BME280;57161;43.136;24.706;2023-01-08T11:21:26;99662.94;;;11.20;55.13
69879;BME280;57161;43.136;24.706;2023-01-08T11:24:14;99658.31;;;11.36;54.59
69879;BME280;57161;43.136;24.706;2023-01-08T11:26:47;99662.19;;;11.33;54.42
69879;BME280;57161;43.136;24.706;2023-01-08T11:29:40;99663.69;;;11.34;54.80
69879;BME280;57161;43.136;24.706;2023-01-08T11:32:23;99655.63;;;11.30;54.58
69879;BME280;57161;43.136;24.706;2023-01-08T11:37:29;99661.22;;;11.30;54.51
69879;BME280;57161;43.136;24.706;2023-01-08T11:39:58;99659.59;;;11.35;54.93
69879;BME280;57161;43.136;24.706;2023-01-08T11:42:30;99659.06;;;11.36;55.44
69879;BME280;57161;43.136;24.706;2023-01-08T11:50:28;99655.28;;;11.34;55.93
69879;BME280;57161;43.136;24.706;2023-01-08T11:53:22;99649.63;;;11.26;56.28
69879;BME280;57161;43.136;24.706;2023-01-08T11:56:15;99644.00;;;11.26;56.32
69879;BME280;57161;43.136;24.706;2023-01-08T12:01:31;99643.16;;;11.31;56.75
69879;BME280;57161;43.136;24.706;2023-01-08T12:12:04;99644.44;;;11.30;57.03
69879;BME280;57161;43.136;24.706;2023-01-08T12:22:41;99643.56;;;11.22;56.98
69879;BME280;57161;43.136;24.706;2023-01-08T12:25:21;99648.31;;;11.27;57.03
69879;BME280;57161;43.136;24.706;2023-01-08T12:33:38;99644.75;;;11.13;56.98
69879;BME280;57161;43.136;24.706;2023-01-08T12:36:10;99642.72;;;11.14;56.80
69879;BME280;57161;43.136;24.706;2023-01-08T12:38:41;99638.00;;;11.09;56.90
69879;BME280;57161;43.136;24.706;2023-01-08T12:41:17;99617.22;;;11.04;56.80
69879;BME280;57161;43.136;24.706;2023-01-08T12:43:59;99623.78;;;11.20;56.32
69879;BME280;57161;43.136;24.706;2023-01-08T12:46:32;99639.25;;;11.34;55.92
69879;BME280;57161;43.136;24.706;2023-01-08T12:48:58;99628.06;;;11.21;56.28
69879;BME280;57161;43.136;24.706;2023-01-08T12:51:25;99634.88;;;11.26;56.23
69879;BME280;57161;43.136;24.706;2023-01-08T12:54:26;99634.41;;;11.35;56.03
69879;BME280;57161;43.136;24.706;2023-01-08T12:57:10;99639.50;;;11.23;56.14
69879;BME280;57161;43.136;24.706;2023-01-08T12:59:38;99643.13;;;11.18;56.20
69879;BME280;57161;43.136;24.706;2023-01-08T13:05:10;99639.16;;;11.13;56.37
69879;BME280;57161;43.136;24.706;2023-01-08T13:07:44;99646.69;;;11.19;55.87
69879;BME280;57161;43.136;24.706;2023-01-08T13:12:56;99646.47;;;11.30;55.62
69879;BME280;57161;43.136;24.706;2023-01-08T13:15:24;99640.22;;;11.37;55.24
69879;BME280;57161;43.136;24.706;2023-01-08T13:17:55;99627.38;;;11.68;54.34
69879;BME280;57161;43.136;24.706;2023-01-08T13:20:25;99633.94;;;12.18;52.77
69879;BME280;57161;43.136;24.706;2023-01-08T13:22:52;99640.34;;;12.05;52.99
69879;BME280;57161;43.136;24.706;2023-01-08T13:27:45;99634.78;;;11.92;53.21
69879;BME280;57161;43.136;24.706;2023-01-08T13:32:55;99649.34;;;11.64;53.77
69879;BME280;57161;43.136;24.706;2023-01-08T13:37:49;99642.81;;;11.22;54.98
69879;BME280;57161;43.136;24.706;2023-01-08T13:43:02;99632.41;;;11.09;55.64
69879;BME280;57161;43.136;24.706;2023-01-08T13:45:29;99641.00;;;11.24;54.93
69879;BME280;57161;43.136;24.706;2023-01-08T13:47:55;99629.81;;;11.24;54.83
69879;BME280;57161;43.136;24.706;2023-01-08T13:50:24;99624.84;;;11.04;55.06
69879;BME280;57161;43.136;24.706;2023-01-08T13:53:02;99638.84;;;11.17;54.75
69879;BME280;57161;43.136;24.706;2023-01-08T13:55:32;99647.44;;;11.06;54.89
69879;BME280;57161;43.136;24.706;2023-01-08T13:58:00;99638.72;;;10.83;55.40
69879;BME280;57161;43.136;24.706;2023-01-08T14:00:53;99632.38;;;10.82;55.23
69879;BME280;57161;43.136;24.706;2023-01-08T14:03:29;99638.69;;;10.70;55.37
69879;BME280;57161;43.136;24.706;2023-01-08T14:06:24;99636.22;;;10.79;55.36
69879;BME280;57161;43.136;24.706;2023-01-08T14:09:01;99625.22;;;10.55;55.83
69879;BME280;57161;43.136;24.706;2023-01-08T14:11:32;99625.50;;;10.38;56.21
69879;BME280;57161;43.136;24.706;2023-01-08T14:13:59;99613.47;;;10.11;56.59
69879;BME280;57161;43.136;24.706;2023-01-08T14:16:24;99608.25;;;10.02;56.81